Glogow, Poland
Current Conditions -  °F | °C
As of 10:30 PM on Monday 26 Jan 2015 (Local Time) from EPZG Reporting Station
Overcast Overcast  
Wind Chill: 26°   Ceiling: 2900
Heat Index: 34°   Visibility: 6mi
Dew Point: 30°   Wind: 9mph
Humidity: 87%   Direction: 160°SSE
Pressure: 29.91"   Gusts: NA
Location:  51.67°N, 16.08°E
Report Text: EPZG 262030Z 16008KT 9999 OVC029 01/M01 Q1013
Loading
Personal Weather Stations






























Interactive Weather Map New forecast layout! Learn more

10-Day Weather Forecast

Advertisements
Track Severe Weather on mobile